Deep River, CT (06417)

3:14 PM EDT on September 27, 2016 (GMT -0400)
St. Lawrence Church Neighborhood | | Change Station

Elev 465 ft 41.36 °N, 72.57 °W | Updated 2 seconds ago

Scattered Clouds
Scattered Clouds
68.1 °F
Feels Like 68.1 °F
N
1.4
Wind Variable Wind from ESE
Gusts 5.6 mph

Today
High -- | Low -- °F
--% Chance of Precip.
Yesterday
High -- | Low -- °F
Precip. -- in
Pressure 29.90 in
Visibility 10.0 miles
Clouds Few 2400 ft
Few 3900 ft
Scattered Clouds 4800 ft
Dew Point 65 °F
Humidity 89%
Rainfall 0.41 in
Snow Depth Not available.
6:43 AM 6:37 PM
Waning Crescent, 10% visible
METAR KSNC 271855Z AUTO 18006KT 10SM FEW024 FEW039 SCT048 22/16 A2990 RMK AO2
Pressure 29.90 in
Visibility 10.0 miles
Clouds Few 2400 ft
Few 3900 ft
Scattered Clouds 4800 ft
Dew Point 65 °F
Humidity 89%
Rainfall 0.41 in
Snow Depth Not available.
6:43 AM 6:37 PM
Waning Crescent, 10% visible
METAR KSNC 271855Z AUTO 18006KT 10SM FEW024 FEW039 SCT048 22/16 A2990 RMK AO2

10-Day Weather Forecast

Almanac

Astronomy

Sep. 27, 2016 Rise Set
Actual Time
Civil Twilight
Nautical Twilight
Astronomical Twilight
Moon
Length of Visible Light
Length of Day
Tomorrow will be .
, % of the Moon is Illuminated

Today's Extremes

State Highs State Lows

Community

WunderPhotos

Upload Photos

1,942,162 photos uploaded!

WunderBlog® & News

Nearby

Air Quality

  Air Quality AQ Index Pollutant
Not available.

Snow Depth

Station Depth Elevation

Earthquake Activity

City Distance Mag. Time & Date
Minimum magnitude displayed is 2.5.

Coastal Water Temperatures

Place Temperature

Stations

Nearby Weather Stations

Station Location Temp. Windchill Dew Point Humidity Wind Precip. Elev Updated Type
                   

Watches & Warnings

There are currently no watches in effect.